Aeroporto :
LOGIN :

Iscrizione | Disclaimer

   EN    FR    IT 

 










Sommario :    VFR   VFR Marginale   IFR   IFR Intensivo   IFR Molto Intensivo
Visibilità : 
Base nubi : 
>= 8 km
>= 3000ft
5 / 8 km
1000 / 3000 ft
1500m / 5 km
500 / 1000 ft
800 / 1500m
200 / 500 ft
< 800m
< 200 ft
Simboli :   Temporali  Nebbia  Neve Forte  Precipitazioni Forti  Vento > 20 kt
SIGMETs :   Varie  Temporali  Ghiacco  Turbolenza  Onda orograficha  Ceneri Vulcaniche






- Altitudine del aeroporto : 7 ft
- Codice IATA : ESH


EGKA - Shoreham

ULTIMO METAR :
  • 041120Z 25010KT 9999 -SHRA FEW008 SCT016 05/03 Q0978

METARs OBSOLETI :
  • 041050Z 25010KT 9999 -SHRA SCT013 BKN045 05/03 Q0978
  • 041020Z 24009KT 9999 SCT014 BKN035 05/03 Q0978
  • 040950Z 24008KT 9999 FEW012 BKN018 04/03 Q0978
  • 040920Z 24006KT 9999 FEW012 SCT018 04/03 Q0977
  • 040850Z 25007KT 9999 FEW016 SCT023 04/02 Q0977
  • 040820Z 26007KT 9999 FEW016 SCT030 03/02 Q0977

TAF TAF EGKA
Valido dal 04 a 08 ore il 04 a 15 ore UTC


040827Z 0408/0415 27010KT 9999 FEW010 SCT025
PROB30
TEMPO 0408/0412 7000 SHRA BKN010
ATIS : +44 1273 467 372



MetMap, La meteo Aeronautica in un colpo d'occhio ! - Copyright ORBIFLY Dicembre 2007 - Disclaimer

ORBIFLY MET'MAP TEAM :

Programmazione e sviluppo : Alexandra Zaïnal
Concezione : Baudouin d'Aumeries
Aiuto per la programmazione : Marc-Olivier Méhu
Supporto tecnico e logistico : Manuel Goepfert
Aiuto per la traduzione : Arnaldo La Scala

Contatto : metmap@orbifly.com




FONTI E CREDITI :

   NOAA